Time;durP1;ratioP1;P1;durP2;ratioP2;P2;SDS_P1;SDS_P2;PMS_P1;PMS_P2;Temp;Humidity;BMP_temperature;BMP_pressure;BME280_temperature;BME280_humidity;BME280_pressure;Samples;Min_cycle;Max_cycle;Signal;HPM_P1;HPM_P2
2023/08/10 00:00:11;;;;;;;;;;;;;;;16.85;68.10;100246.38;1086928;54;19942;-81
2023/08/10 00:01:15;;;;;;;;;;;;;;;16.82;68.10;100252.13;1086797;47;20026;-81
2023/08/10 00:02:16;;;;;;;;;;;;;;;16.81;68.19;100242.38;1086609;47;19946;-82
2023/08/10 00:03:19;;;;;;;;;;;;;;;16.75;68.02;100243.09;1086422;47;19946;-81
2023/08/10 00:04:20;;;;;;;;;;;;;;;16.74;67.80;100249.50;1086271;47;19946;-81
2023/08/10 00:05:24;;;;;;;;;;;;;;;16.71;67.78;100244.47;1086815;47;19938;-82
2023/08/10 00:06:24;;;;;;;;;;;;;;;16.70;68.17;100243.63;1087135;54;20870;-82
2023/08/10 00:07:28;;;;;;;;;;;;;;;16.66;68.13;100248.53;1090664;31;20849;-82
2023/08/10 00:08:31;;;;;;;;;;;;;;;16.62;67.96;100247.25;1087216;54;19942;-82
2023/08/10 00:09:37;;;;;;;;;;;;;;;16.58;67.83;100240.50;1087606;39;20604;-82
2023/08/10 00:10:38;;;;;;;;;;;;;;;16.55;67.72;100256.22;1087017;54;20523;-82
2023/08/10 00:11:41;;;;;;;;;;;;;;;16.50;67.89;100251.38;1087060;47;19954;-82
2023/08/10 00:12:42;;;;;;;;;;;;;;;16.48;67.94;100251.53;1086995;47;19957;-82
2023/08/10 00:13:43;;;;;;;;;;;;;;;16.47;68.01;100249.00;1087267;54;19962;-82
2023/08/10 00:14:46;;;;;;;;;;;;;;;16.46;68.25;100247.34;1087232;54;19951;-82
2023/08/10 00:15:47;;;;;;;;;;;;;;;16.46;67.92;100250.03;1087073;47;19994;-81
2023/08/10 00:16:51;;;;;;;;;;;;;;;16.42;67.94;100246.03;1087157;47;19946;-82
2023/08/10 00:17:52;;;;;;;;;;;;;;;16.42;67.61;100246.84;1086965;47;21120;-82
2023/08/10 00:18:55;;;;;;;;;;;;;;;16.42;68.12;100241.47;1086976;47;19972;-82
2023/08/10 00:19:57;;;;;;;;;;;;;;;16.45;67.83;100245.66;1087164;54;19950;-82
2023/08/10 00:21:01;;;;;;;;;;;;;;;16.46;67.67;100241.94;1087061;54;19951;-81
2023/08/10 00:22:02;;;;;;;;;;;;;;;16.46;67.71;100242.78;1087597;39;20403;-82
2023/08/10 00:23:05;;;;;;;;;;;;;;;16.42;68.15;100240.63;1086620;47;19939;-82
2023/08/10 00:24:09;;;;;;;;;;;;;;;16.34;67.42;100242.34;1087003;47;20002;-81
2023/08/10 00:25:12;;;;;;;;;;;;;;;16.30;67.65;100237.47;1086907;54;19943;-82
2023/08/10 00:26:14;;;;;;;;;;;;;;;16.20;67.31;100246.63;1086724;47;19973;-82
2023/08/10 00:27:17;;;;;;;;;;;;;;;16.26;67.81;100244.25;1086514;46;20018;-81
2023/08/10 00:28:18;;;;;;;;;;;;;;;16.16;67.29;100247.16;1086628;47;19951;-82
2023/08/10 00:29:23;;;;;;;;;;;;;;;16.15;67.33;100246.34;1086800;47;19953;-82
2023/08/10 00:30:24;;;;;;;;;;;;;;;16.13;67.26;100245.66;1087120;47;19965;-82
2023/08/10 00:31:28;;;;;;;;;;;;;;;16.12;67.48;100240.47;1086846;47;19939;-81
2023/08/10 00:32:28;;;;;;;;;;;;;;;16.07;67.59;100246.38;1086709;47;19955;-81
2023/08/10 00:33:32;;;;;;;;;;;;;;;16.11;67.19;100245.00;1086668;54;19954;-82
2023/08/10 00:34:33;;;;;;;;;;;;;;;16.10;67.25;100237.94;1089121;39;20691;-82
2023/08/10 00:35:40;;;;;;;;;;;;;;;16.06;67.41;100242.81;1086629;47;20006;-82
2023/08/10 00:36:42;;;;;;;;;;;;;;;16.01;67.69;100237.13;1086317;47;20349;-82
2023/08/10 00:37:46;;;;;;;;;;;;;;;15.97;67.60;100235.78;1085959;54;19957;-81
2023/08/10 00:38:47;;;;;;;;;;;;;;;15.99;67.95;100236.47;1086399;54;20007;-82
2023/08/10 00:39:54;;;;;;;;;;;;;;;16.03;67.72;100240.50;1086628;54;19949;-82
2023/08/10 00:40:54;;;;;;;;;;;;;;;16.01;67.65;100233.63;1087000;39;20560;-82
2023/08/10 00:41:58;;;;;;;;;;;;;;;16.04;67.63;100239.50;1086885;54;19946;-82
2023/08/10 00:43:00;;;;;;;;;;;;;;;16.07;67.35;100246.38;1087055;47;19938;-81
2023/08/10 00:44:04;;;;;;;;;;;;;;;16.08;67.52;100241.81;1086830;47;19973;-82
2023/08/10 00:45:06;;;;;;;;;;;;;;;16.10;67.49;100237.94;1086882;47;19967;-82
2023/08/10 00:46:12;;;;;;;;;;;;;;;16.10;67.53;100237.94;1086613;54;19938;-82
2023/08/10 00:47:14;;;;;;;;;;;;;;;16.03;66.86;100239.66;1088767;39;20915;-82
2023/08/10 00:48:17;;;;;;;;;;;;;;;16.03;67.15;100243.19;1086745;47;19945;-82
2023/08/10 00:49:18;;;;;;;;;;;;;;;16.00;67.44;100240.84;1086825;54;20545;-82
2023/08/10 00:50:23;;;;;;;;;;;;;;;15.96;67.27;100242.22;1087034;51;19938;-82
2023/08/10 00:51:25;;;;;;;;;;;;;;;16.01;67.01;100234.44;1086818;47;19947;-82
2023/08/10 00:52:25;;;;;;;;;;;;;;;16.01;66.99;100239.00;1086878;47;20797;-82
2023/08/10 00:53:30;;;;;;;;;;;;;;;15.98;67.16;100245.56;1086933;47;19938;-82
2023/08/10 00:54:33;;;;;;;;;;;;;;;16.00;67.07;100240.03;1086955;47;19950;-82
2023/08/10 00:55:40;;;;;;;;;;;;;;;15.93;67.38;100247.97;1086908;54;19950;-82
2023/08/10 00:56:41;;;;;;;;;;;;;;;15.82;67.25;100246.44;1086948;54;19943;-82
2023/08/10 00:57:44;;;;;;;;;;;;;;;15.75;67.33;100240.06;1086906;54;19949;-82
2023/08/10 00:58:45;;;;;;;;;;;;;;;15.79;67.54;100245.94;1087893;39;20718;-82
2023/08/10 00:59:49;;;;;;;;;;;;;;;15.82;67.56;100251.00;1086783;54;20074;-82
2023/08/10 01:00:50;;;;;;;;;;;;;;;15.84;67.66;100255.22;1086873;47;19942;-82
2023/08/10 01:01:54;;;;;;;;;;;;;;;15.84;67.50;100254.41;1088852;39;20187;-82
2023/08/10 01:02:54;;;;;;;;;;;;;;;15.86;67.52;100249.69;1086757;47;20605;-82
2023/08/10 01:03:58;;;;;;;;;;;;;;;15.80;67.41;100253.88;1086827;47;20254;-82
2023/08/10 01:04:59;;;;;;;;;;;;;;;15.79;67.33;100254.03;1087784;39;20490;-82
2023/08/10 01:06:06;;;;;;;;;;;;;;;15.79;67.56;100251.34;1086932;47;19953;-82
2023/08/10 01:07:13;;;;;;;;;;;;;;;15.82;67.13;100249.13;1086995;47;19950;-82
2023/08/10 01:08:25;;;;;;;;;;;;;;;15.84;67.35;100254.41;1086525;47;19954;-82
2023/08/10 01:09:34;;;;;;;;;;;;;;;15.86;67.11;100258.59;1086350;46;19946;-82
2023/08/10 01:10:46;;;;;;;;;;;;;;;15.84;67.15;100257.91;1087040;47;19975;-82
2023/08/10 01:11:52;;;;;;;;;;;;;;;15.84;67.31;100257.91;1086949;47;19947;-82
2023/08/10 01:12:59;;;;;;;;;;;;;;;15.84;67.16;100255.22;1086897;47;20845;-82
2023/08/10 01:14:03;;;;;;;;;;;;;;;15.85;67.12;100261.47;1086676;47;19939;-82
2023/08/10 01:15:10;;;;;;;;;;;;;;;15.83;66.96;100256.19;1086390;47;19939;-82
2023/08/10 01:16:11;;;;;;;;;;;;;;;15.81;67.38;100257.41;1085783;47;19977;-82
2023/08/10 01:17:18;;;;;;;;;;;;;;;15.73;68.04;100255.56;1086080;47;20051;-82
2023/08/10 01:18:25;;;;;;;;;;;;;;;15.72;67.91;100256.59;1086959;47;19938;-82
2023/08/10 01:19:34;;;;;;;;;;;;;;;15.71;68.27;100254.91;1086679;47;19945;-81
2023/08/10 01:20:37;;;;;;;;;;;;;;;15.70;67.78;100254.06;1086335;54;19950;-82
2023/08/10 01:21:45;;;;;;;;;;;;;;;15.70;68.16;100255.94;1086048;54;20494;-82
2023/08/10 01:22:50;;;;;;;;;;;;;;;15.67;68.56;100262.50;1085937;47;19965;-82
2023/08/10 01:23:55;;;;;;;;;;;;;;;15.68;68.51;100253.38;1086058;47;19947;-82
2023/08/10 01:25:05;;;;;;;;;;;;;;;15.67;69.04;100254.44;1086513;54;19969;-82
2023/08/10 01:26:09;;;;;;;;;;;;;;;15.67;69.01;100253.56;1086970;47;20562;-83
2023/08/10 01:27:10;;;;;;;;;;;;;;;15.65;69.07;100248.38;1086847;46;19943;-82
2023/08/10 01:28:15;;;;;;;;;;;;;;;15.64;69.16;100248.53;1086883;54;20033;-82
2023/08/10 01:29:16;;;;;;;;;;;;;;;15.64;68.92;100249.38;1086842;47;20429;-82
2023/08/10 01:30:23;;;;;;;;;;;;;;;15.66;68.81;100252.75;1086972;47;19966;-83
2023/08/10 01:31:24;;;;;;;;;;;;;;;15.62;70.03;100253.25;1086868;47;20009;-82
2023/08/10 01:32:27;;;;;;;;;;;;;;;15.57;70.24;100251.91;1087035;47;19942;-82
2023/08/10 01:33:31;;;;;;;;;;;;;;;15.56;70.61;100257.50;1086938;54;19951;-82
2023/08/10 01:34:32;;;;;;;;;;;;;;;15.57;69.72;100253.78;1086864;47;19926;-82
2023/08/10 01:35:35;;;;;;;;;;;;;;;15.60;69.49;100256.13;1086523;47;19946;-82
2023/08/10 01:36:36;;;;;;;;;;;;;;;15.57;69.72;100262.69;1086528;47;19951;-82
2023/08/10 01:37:40;;;;;;;;;;;;;;;15.55;69.49;100253.09;1085784;47;19953;-82
2023/08/10 01:38:41;;;;;;;;;;;;;;;15.47;69.90;100253.13;1086717;54;19942;-82
2023/08/10 01:39:45;;;;;;;;;;;;;;;15.43;69.87;100258.03;1086720;39;20818;-82
2023/08/10 01:40:51;;;;;;;;;;;;;;;15.35;69.87;100258.88;1086199;54;19951;-82
2023/08/10 01:41:54;;;;;;;;;;;;;;;15.37;69.63;100256.84;1086252;54;19951;-82
2023/08/10 01:42:55;;;;;;;;;;;;;;;15.36;69.86;100257.88;1086206;54;19977;-82
2023/08/10 01:43:59;;;;;;;;;;;;;;;15.35;69.99;100255.34;1086130;47;19946;-82
2023/08/10 01:45:01;;;;;;;;;;;;;;;15.34;70.33;100253.66;1086735;31;20628;-82
2023/08/10 01:46:04;;;;;;;;;;;;;;;15.30;70.43;100253.16;1086202;47;19969;-82
2023/08/10 01:47:07;;;;;;;;;;;;;;;15.28;70.62;100256.00;1086970;39;20537;-81
2023/08/10 01:48:11;;;;;;;;;;;;;;;15.31;70.79;100257.50;1086722;39;20450;-82
2023/08/10 01:49:12;;;;;;;;;;;;;;;15.24;72.03;100253.81;1086594;47;19946;-81
2023/08/10 01:50:18;;;;;;;;;;;;;;;15.25;71.11;100253.69;1086385;47;19981;-81
2023/08/10 01:51:20;;;;;;;;;;;;;;;15.26;71.50;100260.72;1086276;54;19942;-81
2023/08/10 01:52:22;;;;;;;;;;;;;;;15.28;71.04;100258.69;1085062;54;19950;-82
2023/08/10 01:53:29;;;;;;;;;;;;;;;15.30;71.38;100263.94;1085342;54;19950;-82
2023/08/10 01:54:30;;;;;;;;;;;;;;;15.33;70.95;100262.75;1083869;47;19946;-81
2023/08/10 01:55:31;;;;;;;;;;;;;;;15.34;71.24;100264.44;1083934;47;19951;-81
2023/08/10 01:56:37;;;;;;;;;;;;;;;15.31;71.68;100260.22;1084008;54;19954;-81
2023/08/10 01:57:38;;;;;;;;;;;;;;;15.31;71.95;100270.16;1084208;47;19950;-80
2023/08/10 01:58:41;;;;;;;;;;;;;;;15.29;72.24;100263.09;1083689;47;19958;-81
2023/08/10 01:59:42;;;;;;;;;;;;;;;15.29;72.84;100267.66;1084167;54;19978;-82
2023/08/10 02:00:46;;;;;;;;;;;;;;;15.25;73.30;100266.28;1084897;31;20499;-81
2023/08/10 02:01:47;;;;;;;;;;;;;;;15.21;74.15;100271.19;1084050;47;20585;-81
2023/08/10 02:02:51;;;;;;;;;;;;;;;15.22;73.35;100272.00;1083917;54;19946;-80
2023/08/10 02:03:51;;;;;;;;;;;;;;;15.23;73.15;100274.53;1083886;47;19947;-80
2023/08/10 02:04:55;;;;;;;;;;;;;;;15.21;72.98;100268.47;1083989;54;20763;-81
2023/08/10 02:05:55;;;;;;;;;;;;;;;15.24;73.47;100272.69;1083897;47;20069;-81
2023/08/10 02:06:59;;;;;;;;;;;;;;;15.21;73.95;100270.34;1084878;39;20356;-80
2023/08/10 02:07:59;;;;;;;;;;;;;;;15.20;74.09;100269.50;1084151;54;19956;-81
2023/08/10 02:09:00;;;;;;;;;;;;;;;15.20;74.27;100274.88;1084036;54;20041;-81
2023/08/10 02:10:03;;;;;;;;;;;;;;;15.18;75.11;100276.06;1085247;31;20425;-81
2023/08/10 02:11:04;;;;;;;;;;;;;;;15.15;75.51;100277.25;1084068;47;19958;-81
2023/08/10 02:12:11;;;;;;;;;;;;;;;15.17;74.64;100269.81;1083992;47;19947;-81
2023/08/10 02:13:12;;;;;;;;;;;;;;;15.13;75.08;100282.78;1083738;47;19946;-81
2023/08/10 02:14:15;;;;;;;;;;;;;;;15.11;75.51;100276.72;1084100;54;20711;-81
2023/08/10 02:15:16;;;;;;;;;;;;;;;15.08;75.74;100281.59;1084536;39;20427;-80
2023/08/10 02:16:20;;;;;;;;;;;;;;;15.08;75.18;100277.06;1084171;54;19953;-81
2023/08/10 02:17:20;;;;;;;;;;;;;;;15.09;74.63;100270.69;1085866;39;20435;-80
2023/08/10 02:18:21;;;;;;;;;;;;;;;15.05;75.49;100272.03;1084556;54;19958;-82
2023/08/10 02:19:25;;;;;;;;;;;;;;;15.04;75.47;100282.97;1084408;47;19950;-82
2023/08/10 02:20:26;;;;;;;;;;;;;;;14.97;75.20;100274.72;1084770;54;19946;-81
2023/08/10 02:21:29;;;;;;;;;;;;;;;14.94;75.80;100278.59;1084532;54;20594;-82
2023/08/10 02:22:30;;;;;;;;;;;;;;;14.90;76.00;100279.09;1084208;54;19951;-81
2023/08/10 02:23:35;;;;;;;;;;;;;;;14.91;75.24;100278.09;1084229;54;19981;-81
2023/08/10 02:24:35;;;;;;;;;;;;;;;14.95;74.58;100276.72;1084146;47;19950;-81
2023/08/10 02:25:39;;;;;;;;;;;;;;;14.94;74.77;100285.81;1084600;54;19953;-81
2023/08/10 02:26:39;;;;;;;;;;;;;;;14.91;75.36;100276.22;1084050;54;19947;-81
2023/08/10 02:27:46;;;;;;;;;;;;;;;14.94;74.70;100286.66;1084069;54;19946;-81
2023/08/10 02:28:46;;;;;;;;;;;;;;;14.96;74.38;100283.78;1084457;54;19953;-81
2023/08/10 02:29:50;;;;;;;;;;;;;;;14.94;74.60;100280.44;1085335;39;20787;-81
2023/08/10 02:30:51;;;;;;;;;;;;;;;14.92;74.92;100277.09;1084161;47;19971;-81
2023/08/10 02:31:54;;;;;;;;;;;;;;;14.94;74.80;100280.44;1084336;54;19951;-82
2023/08/10 02:32:55;;;;;;;;;;;;;;;14.87;75.45;100282.97;1084728;39;20866;-81
2023/08/10 02:33:59;;;;;;;;;;;;;;;14.89;74.98;100288.19;1083887;47;19973;-80
2023/08/10 02:35:00;;;;;;;;;;;;;;;14.89;75.21;100282.78;1084319;54;19951;-82
2023/08/10 02:36:04;;;;;;;;;;;;;;;14.84;76.44;100277.91;1084093;54;19947;-81
2023/08/10 02:37:06;;;;;;;;;;;;;;;14.84;76.21;100282.44;1084409;54;19961;-81
2023/08/10 02:38:10;;;;;;;;;;;;;;;14.78;76.68;100282.09;1084181;54;20001;-81
2023/08/10 02:39:11;;;;;;;;;;;;;;;14.79;75.95;100283.78;1083921;47;19946;-80
2023/08/10 02:40:14;;;;;;;;;;;;;;;14.79;76.31;100288.31;1084197;54;20761;-81
2023/08/10 02:41:15;;;;;;;;;;;;;;;14.77;76.40;100284.97;1083210;54;19947;-81
2023/08/10 02:42:51;;;;;;;;;;;;;;;14.80;76.10;100284.63;1087652;47;19945;-85
2023/08/10 02:54:02;;;;;;;;;;;;;;;14.64;75.80;100269.28;1079261;54;19991;-86
2023/08/10 03:27:15;;;;;;;;;;;;;;;14.41;75.43;100291.44;1089075;54;19927;-87
2023/08/10 03:35:13;;;;;;;;;;;;;;;14.30;77.33;100299.78;1089010;54;19927;-84
2023/08/10 03:51:17;;;;;;;;;;;;;;;14.12;77.11;100303.41;1072299;54;19951;-85
2023/08/10 03:53:44;;;;;;;;;;;;;;;14.09;77.49;100298.34;1090717;39;20860;-86
2023/08/10 03:54:51;;;;;;;;;;;;;;;14.14;77.24;100306.81;1083543;47;19946;-84
2023/08/10 04:16:22;;;;;;;;;;;;;;;14.08;77.92;100299.34;1074183;54;20740;-86
2023/08/10 04:18:49;;;;;;;;;;;;;;;14.01;77.91;100298.31;1078967;54;19942;-86
2023/08/10 04:29:26;;;;;;;;;;;;;;;13.97;78.08;100321.16;1078757;54;19942;-83
2023/08/10 04:34:32;;;;;;;;;;;;;;;14.01;77.48;100323.38;1078697;54;19927;-86
2023/08/10 04:36:59;;;;;;;;;;;;;;;14.05;77.78;100315.84;1077272;54;19935;-84
2023/08/10 04:38:19;;;;;;;;;;;;;;;14.00;77.90;100321.69;1088590;54;19927;-86
2023/08/10 04:59:33;;;;;;;;;;;;;;;14.10;77.74;100324.25;1081378;54;19935;-85
2023/08/10 05:05:59;;;;;;;;;;;;;;;13.78;78.79;100336.53;1077164;54;20815;-85
2023/08/10 05:11:04;;;;;;;;;;;;;;;13.73;78.72;100336.13;1070238;54;19954;-84
2023/08/10 05:14:45;;;;;;;;;;;;;;;13.87;77.88;100340.94;1088862;54;19926;-87
2023/08/10 05:15:53;;;;;;;;;;;;;;;13.91;78.01;100341.47;1076168;54;20673;-85
2023/08/10 05:32:17;;;;;;;;;;;;;;;14.11;77.06;100339.38;1088137;54;19943;-84
2023/08/10 05:40:59;;;;;;;;;;;;;;;14.06;76.34;100349.78;1076240;54;19939;-85
2023/08/10 05:47:18;;;;;;;;;;;;;;;14.16;75.61;100349.66;1088194;54;19994;-86
2023/08/10 05:52:26;;;;;;;;;;;;;;;14.40;75.46;100373.09;1088099;54;19926;-86
2023/08/10 05:56:04;;;;;;;;;;;;;;;14.41;75.23;100377.50;1079017;54;20755;-83
2023/08/10 06:08:04;;;;;;;;;;;;;;;14.69;74.78;100363.81;1088163;54;19974;-86
2023/08/10 06:15:16;;;;;;;;;;;;;;;14.88;74.22;100360.00;1095296;39;20924;-86
2023/08/10 06:28:08;;;;;;;;;;;;;;;15.05;73.48;100358.16;1087156;54;19931;-86
2023/08/10 06:35:02;;;;;;;;;;;;;;;15.20;72.67;100360.22;1087663;54;19926;-86
2023/08/10 06:53:34;;;;;;;;;;;;;;;15.72;71.26;100391.34;1088033;54;19927;-86
2023/08/10 07:03:15;;;;;;;;;;;;;;;15.87;69.36;100381.59;1078497;54;20806;31
2023/08/10 07:19:21;;;;;;;;;;;;;;;16.46;69.39;100399.28;1089001;54;19926;-88
2023/08/10 08:13:19;;;;;;;;;;;;;;;18.16;62.98;100381.31;1088774;54;19942;-87
2023/08/10 08:58:37;;;;;;;;;;;;;;;21.50;54.54;100350.53;1087775;54;19939;-88
2023/08/10 09:00:40;;;;;;;;;;;;;;;22.10;54.11;100347.75;1087525;54;22231;-88
2023/08/10 09:01:47;;;;;;;;;;;;;;;22.16;53.98;100340.63;1087055;46;19939;-88
2023/08/10 09:02:49;;;;;;;;;;;;;;;22.20;53.86;100343.75;1087943;46;19967;-90
2023/08/10 09:03:52;;;;;;;;;;;;;;;22.22;52.73;100347.09;1087882;54;19973;-89
2023/08/10 09:04:59;;;;;;;;;;;;;;;22.26;53.58;100338.28;1087813;54;19950;-88
2023/08/10 09:06:02;;;;;;;;;;;;;;;22.39;53.32;100336.53;1087863;54;20687;-89
2023/08/10 09:07:03;;;;;;;;;;;;;;;22.44;52.25;100334.88;1087345;54;19942;-87
2023/08/10 09:08:04;;;;;;;;;;;;;;;22.36;52.18;100334.25;1087137;47;19938;-88
2023/08/10 09:09:07;;;;;;;;;;;;;;;22.34;51.89;100333.63;1087193;54;19991;-89
2023/08/10 09:10:08;;;;;;;;;;;;;;;22.54;52.35;100328.97;1087284;47;20014;-90
2023/08/10 09:12:32;;;;;;;;;;;;;;;22.55;52.49;100332.53;1087466;54;19950;-88
2023/08/10 09:13:35;;;;;;;;;;;;;;;22.70;52.61;100327.63;1087492;47;19943;-87
2023/08/10 09:14:39;;;;;;;;;;;;;;;22.80;51.60;100329.88;1087360;54;19950;-90
2023/08/10 09:15:41;;;;;;;;;;;;;;;23.01;51.99;100327.84;1087367;47;19962;-87
2023/08/10 09:16:47;;;;;;;;;;;;;;;23.11;52.04;100328.22;1088462;39;20649;-86
2023/08/10 09:17:49;;;;;;;;;;;;;;;23.00;51.84;100331.63;1087663;54;19942;-86
2023/08/10 09:18:52;;;;;;;;;;;;;;;23.08;51.83;100323.19;1087425;54;19943;-89
2023/08/10 09:19:53;;;;;;;;;;;;;;;23.20;51.74;100326.91;1087633;54;19943;-87
2023/08/10 09:21:07;;;;;;;;;;;;;;;23.32;51.50;100326.19;1087253;54;19965;-87
2023/08/10 09:22:08;;;;;;;;;;;;;;;23.51;51.64;100321.63;1087368;54;19999;-87
2023/08/10 09:23:20;;;;;;;;;;;;;;;23.66;50.95;100321.25;1087581;54;19942;-89
2023/08/10 09:24:21;;;;;;;;;;;;;;;23.72;50.14;100316.81;1088262;39;20653;-87
2023/08/10 09:26:33;;;;;;;;;;;;;;;23.98;50.57;100316.53;1087449;54;21039;-88
2023/08/10 09:27:36;;;;;;;;;;;;;;;23.94;50.69;100318.09;1088123;39;21097;-88
2023/08/10 09:28:42;;;;;;;;;;;;;;;23.89;50.50;100320.59;1087280;54;19949;-89
2023/08/10 09:29:43;;;;;;;;;;;;;;;23.95;50.18;100317.00;1087167;47;19970;-89
2023/08/10 09:30:46;;;;;;;;;;;;;;;24.18;49.56;100309.19;1087659;39;20714;-87
2023/08/10 09:31:47;;;;;;;;;;;;;;;24.36;50.06;100319.25;1086763;47;19939;-89
2023/08/10 09:32:50;;;;;;;;;;;;;;;24.33;48.68;100312.34;1086813;54;20030;-88
2023/08/10 09:33:55;;;;;;;;;;;;;;;24.25;48.61;100320.88;1086841;47;19946;-88
2023/08/10 09:34:58;;;;;;;;;;;;;;;24.33;48.37;100314.25;1086834;47;19959;-88
2023/08/10 09:35:59;;;;;;;;;;;;;;;24.35;49.62;100321.16;1086851;54;19943;-88
2023/08/10 09:37:03;;;;;;;;;;;;;;;23.99;48.96;100311.94;1086868;54;19943;-90
2023/08/10 09:38:04;;;;;;;;;;;;;;;24.23;49.35;100306.59;1086906;47;19939;-89
2023/08/10 09:39:08;;;;;;;;;;;;;;;24.50;49.33;100311.72;1086908;54;19943;-88
2023/08/10 09:40:11;;;;;;;;;;;;;;;24.64;48.98;100307.75;1088348;31;20889;-88
2023/08/10 09:41:15;;;;;;;;;;;;;;;24.77;48.65;100304.03;1086820;47;19938;-86
2023/08/10 09:43:20;;;;;;;;;;;;;;;25.11;47.65;100295.31;1087010;47;19946;-87
2023/08/10 09:44:23;;;;;;;;;;;;;;;25.02;47.87;100303.84;1087168;54;19942;-89
2023/08/10 09:45:27;;;;;;;;;;;;;;;24.87;47.51;100301.56;1087294;54;19943;-89
2023/08/10 09:46:29;;;;;;;;;;;;;;;24.82;47.69;100301.41;1087502;54;19950;-88
2023/08/10 09:47:36;;;;;;;;;;;;;;;24.58;47.82;100298.59;1087250;54;19950;-88
2023/08/10 09:48:37;;;;;;;;;;;;;;;24.17;48.31;100291.16;1087268;54;19965;-87
2023/08/10 09:49:38;;;;;;;;;;;;;;;24.23;48.63;100307.44;1086907;47;19951;-87
2023/08/10 09:50:42;;;;;;;;;;;;;;;23.73;49.41;100297.47;1086734;47;19950;-88
2023/08/10 09:51:43;;;;;;;;;;;;;;;24.10;48.85;100307.59;1086740;47;19939;-88
2023/08/10 09:52:49;;;;;;;;;;;;;;;24.44;48.36;100306.13;1086740;47;19941;-88
2023/08/10 09:53:50;;;;;;;;;;;;;;;24.66;47.82;100297.41;1086766;47;19999;-85
2023/08/10 09:54:54;;;;;;;;;;;;;;;24.84;47.47;100296.56;1086655;54;19994;-85
2023/08/10 09:55:56;;;;;;;;;;;;;;;24.89;47.14;100299.41;1086636;47;19942;-85
2023/08/10 09:56:59;;;;;;;;;;;;;;;24.91;46.80;100301.91;1086515;47;19938;-84
2023/08/10 09:58:00;;;;;;;;;;;;;;;25.16;46.39;100293.53;1086703;47;19964;-85
2023/08/10 09:59:05;;;;;;;;;;;;;;;25.46;45.96;100298.09;1086744;47;20936;-86
2023/08/10 10:00:18;;;;;;;;;;;;;;;25.74;45.86;100287.50;1087009;47;19942;-85
2023/08/10 10:01:22;;;;;;;;;;;;;;;25.80;45.54;100281.91;1087092;46;19939;-88
2023/08/10 10:02:24;;;;;;;;;;;;;;;26.01;44.82;100290.56;1087149;47;19938;-87
2023/08/10 10:03:31;;;;;;;;;;;;;;;26.15;45.02;100283.75;1088649;39;20653;-86
2023/08/10 10:04:33;;;;;;;;;;;;;;;26.21;44.53;100284.69;1090116;39;20972;-87
2023/08/10 10:05:37;;;;;;;;;;;;;;;26.08;43.99;100285.78;1087216;46;19962;-87
2023/08/10 10:06:37;;;;;;;;;;;;;;;26.01;44.44;100288.63;1086998;47;19939;-86
2023/08/10 10:07:41;;;;;;;;;;;;;;;26.04;44.17;100281.00;1087142;54;19942;-86
2023/08/10 10:08:46;;;;;;;;;;;;;;;25.92;44.45;100279.13;1086941;47;19969;-87
2023/08/10 10:09:49;;;;;;;;;;;;;;;26.10;44.50;100280.91;1087062;47;19938;-86
2023/08/10 10:10:50;;;;;;;;;;;;;;;26.03;44.64;100279.34;1087160;47;19939;-89
2023/08/10 10:11:54;;;;;;;;;;;;;;;26.14;44.08;100278.53;1091659;39;20835;-86
2023/08/10 10:12:55;;;;;;;;;;;;;;;26.29;43.84;100283.47;1086878;47;19973;-85
2023/08/10 10:13:59;;;;;;;;;;;;;;;26.40;43.65;100277.09;1087000;54;19950;-85
2023/08/10 10:15:01;;;;;;;;;;;;;;;26.49;43.01;100274.81;1086914;47;20889;-87
2023/08/10 10:16:07;;;;;;;;;;;;;;;26.58;43.02;100265.09;1090518;39;20807;-86
2023/08/10 10:17:09;;;;;;;;;;;;;;;26.36;42.49;100272.34;1087119;54;19943;-86
2023/08/10 10:18:13;;;;;;;;;;;;;;;26.01;42.73;100272.19;1087087;47;19939;-84
2023/08/10 10:19:14;;;;;;;;;;;;;;;25.82;42.93;100282.50;1086918;46;19950;-86
2023/08/10 10:20:17;;;;;;;;;;;;;;;26.17;42.20;100272.53;1087010;47;19939;-87
2023/08/10 10:21:18;;;;;;;;;;;;;;;26.22;42.43;100272.66;1087522;39;20818;-86
2023/08/10 10:22:22;;;;;;;;;;;;;;;26.40;42.16;100268.06;1087039;54;19969;-86
2023/08/10 10:23:23;;;;;;;;;;;;;;;26.41;42.09;100272.47;1087071;54;20010;-86
2023/08/10 10:24:28;;;;;;;;;;;;;;;26.39;42.40;100277.34;1087114;47;19938;-85
2023/08/10 10:25:29;;;;;;;;;;;;;;;26.60;41.67;100264.84;1087077;54;19942;-87
2023/08/10 10:26:32;;;;;;;;;;;;;;;26.60;42.09;100273.94;1087174;46;19964;-86
2023/08/10 10:27:40;;;;;;;;;;;;;;;26.10;42.45;100269.13;1087183;54;19967;-86
2023/08/10 10:28:44;;;;;;;;;;;;;;;25.89;43.04;100276.88;1087117;54;20010;-87
2023/08/10 10:29:52;;;;;;;;;;;;;;;25.89;42.74;100273.31;1087009;54;19967;-85
2023/08/10 10:30:57;;;;;;;;;;;;;;;26.17;42.36;100264.31;1088441;39;21119;-87
2023/08/10 10:32:06;;;;;;;;;;;;;;;26.62;41.43;100258.06;1086979;47;19938;-87
2023/08/10 10:33:10;;;;;;;;;;;;;;;26.24;40.88;100259.56;1086863;54;19939;-85
2023/08/10 10:34:12;;;;;;;;;;;;;;;26.31;39.72;100256.66;1086931;47;20019;-86
2023/08/10 10:35:14;;;;;;;;;;;;;;;26.57;39.53;100257.97;1086913;54;19943;-84
2023/08/10 10:36:20;;;;;;;;;;;;;;;26.91;38.54;100251.72;1086910;47;19938;-83
2023/08/10 10:37:26;;;;;;;;;;;;;;;26.85;38.02;100260.94;1089177;39;21103;-86
2023/08/10 10:38:29;;;;;;;;;;;;;;;27.05;38.13;100253.06;1087091;54;19974;-88
2023/08/10 10:39:31;;;;;;;;;;;;;;;27.36;37.74;100259.00;1087719;39;20877;-85
2023/08/10 10:40:35;;;;;;;;;;;;;;;27.61;37.56;100252.28;1087902;39;21038;-86
2023/08/10 10:41:36;;;;;;;;;;;;;;;27.79;36.98;100253.88;1087194;54;19946;-86
2023/08/10 10:42:59;;;;;;;;;;;;;;;27.81;37.10;100251.72;1086975;54;21097;-87
2023/08/10 10:44:00;;;;;;;;;;;;;;;27.90;36.03;100251.25;1086997;47;20907;-88
2023/08/10 10:45:08;;;;;;;;;;;;;;;27.64;36.75;100257.25;1087486;39;20229;-87
2023/08/10 10:46:09;;;;;;;;;;;;;;;27.44;36.15;100252.31;1087481;54;19942;-85
2023/08/10 10:47:21;;;;;;;;;;;;;;;27.34;36.29;100250.22;1092909;39;20302;-84
2023/08/10 10:48:32;;;;;;;;;;;;;;;27.31;36.14;100258.94;1087420;54;19943;-87
2023/08/10 10:49:35;;;;;;;;;;;;;;;27.45;35.75;100244.88;1089821;39;20964;-86
2023/08/10 10:50:36;;;;;;;;;;;;;;;27.42;35.71;100242.63;1087498;47;19939;-85
2023/08/10 10:51:47;;;;;;;;;;;;;;;27.52;35.71;100240.06;1087328;47;19945;-86
2023/08/10 10:52:57;;;;;;;;;;;;;;;27.22;35.97;100242.06;1087224;47;20018;-88
2023/08/10 10:53:58;;;;;;;;;;;;;;;27.47;35.59;100235.34;1087038;54;19949;-86
2023/08/10 10:55:00;;;;;;;;;;;;;;;27.50;35.53;100236.75;1087021;47;19962;-86
2023/08/10 10:56:04;;;;;;;;;;;;;;;27.43;35.49;100236.91;1086914;47;19939;-84
2023/08/10 10:57:05;;;;;;;;;;;;;;;27.32;35.62;100238.66;1087902;39;20610;-86
2023/08/10 10:58:09;;;;;;;;;;;;;;;27.40;35.70;100240.97;1086998;47;19972;-87
2023/08/10 10:59:12;;;;;;;;;;;;;;;27.39;36.13;100235.75;1086969;47;19939;-88
2023/08/10 11:00:17;;;;;;;;;;;;;;;27.19;36.83;100237.09;1089499;39;21019;-85
2023/08/10 11:01:19;;;;;;;;;;;;;;;26.49;37.38;100230.97;1087059;46;19975;-85
2023/08/10 11:02:25;;;;;;;;;;;;;;;26.43;37.80;100229.22;1086991;47;20018;-85
2023/08/10 11:03:28;;;;;;;;;;;;;;;26.32;37.50;100236.38;1088395;39;20920;-85
2023/08/10 11:04:32;;;;;;;;;;;;;;;26.20;37.86;100233.72;1086988;54;19942;-84
2023/08/10 11:05:33;;;;;;;;;;;;;;;26.01;38.52;100231.13;1086886;47;19938;-86
2023/08/10 11:06:36;;;;;;;;;;;;;;;26.01;38.56;100227.56;1088483;39;20796;-86
2023/08/10 11:07:42;;;;;;;;;;;;;;;25.94;39.06;100238.66;1087052;54;19942;-86
2023/08/10 11:08:42;;;;;;;;;;;;;;;25.96;39.19;100231.03;1087015;47;19964;-86
2023/08/10 11:09:46;;;;;;;;;;;;;;;25.81;39.61;100223.34;1086930;54;19969;-84
2023/08/10 11:10:48;;;;;;;;;;;;;;;25.56;39.84;100231.81;1086817;54;21060;-86
2023/08/10 11:11:51;;;;;;;;;;;;;;;25.18;40.50;100227.66;1086917;47;19943;-86
2023/08/10 11:12:54;;;;;;;;;;;;;;;25.34;40.90;100218.72;1087144;47;19946;-87